Mega Smeralda — ICIU — position and weather

sailwx.info

Track history (hours):
 
Tides and Currents Weather Stations Pressure Air Temp Water Temp Dewpoint Dewpoint Depression Visibility Wind Speed Wind Dir Waves Ship Positions

Mega Smeralda

Last reported at 2016-Sep-26 20:08 UTC. Time now 2016-Sep-27 15:31 UTC.
Position N 42°56' E 006°07'.

Length 171 m; draft 6.5 m.

Type: Passenger vessel. MMSI: 247228600.

Date/timePositionNaut miles runAvg speedWind from/ knotsBaromVisibWave heightAir tempDewpointWater temp
2016-Sep-26 20:08N 42°56' E 006°07'1114.3
2016-Sep-26 19:22N 43°05' E 005°58'3 0.7
2016-Sep-26 15:31N 43°07' E 005°56'0 0.0
2016-Sep-26 13:31N 43°07' E 005°56'0 0.0
2016-Sep-26 11:31N 43°07' E 005°56'0 0.0
2016-Sep-26 08:31N 43°07' E 005°56'63 7.7
2016-Sep-26 00:25N 42°30' E 007°05'58 3.4
2016-Sep-25 07:32N 43°03' E 005°59'2 0.0
2016-Sep-23 06:24N 43°04' E 005°58'3 0.1
2016-Sep-21 05:33N 43°07' E 005°56'0 0.0
2016-Sep-20 08:33N 43°07' E 005°56'0 0.0
2016-Sep-20 07:33N 43°07' E 005°56'0 0.0
2016-Sep-20 06:33N 43°07' E 005°56'4611.6
2016-Sep-20 02:32N 42°57' E 006°58'5819.6
2016-Sep-19 23:33N 43°01' E 008°18'45 6.4
2016-Sep-19 16:28N 43°06' E 009°19'3820.0
2016-Sep-19 14:34N 43°19' E 008°30'2019.9
2016-Sep-19 13:34N 43°27' E 008°05'2019.7
2016-Sep-19 12:34N 43°34' E 007°39'1817.7
2016-Sep-19 11:34N 43°41' E 007°17'2512.4
2016-Sep-19 09:33N 43°20' E 006°59'4715.7
2016-Sep-19 06:32N 43°04' E 005°58'4610.7
2016-Sep-19 02:17N 42°59' E 007°00'83 7.6
2016-Sep-18 15:20N 43°13' E 008°53'7515.7
2016-Sep-18 10:33N 43°40' E 007°16'41 4.3
2016-Sep-18 01:09N 42°59' E 007°09'8517.6
2016-Sep-17 20:19N 43°04' E 009°05'1716.8
2016-Sep-17 19:16N 43°02' E 009°29'36 6.4
2016-Sep-17 13:33N 43°24' E 010°09'1110.3
2016-Sep-17 12:28N 43°33' E 010°18'6 3.0
2016-Sep-17 10:34N 43°29' E 010°12'2019.8
2016-Sep-17 09:34N 43°15' E 009°54'22 4.3
2016-Sep-17 04:21N 42°59' E 009°32'  
Track history (hours):
 
Tides and Currents Weather Stations Pressure Air Temp Water Temp Dewpoint Dewpoint Depression Visibility Wind Speed Wind Dir Waves Ship Positions

Mega Smeralda

Last reported at 2016-Sep-26 20:08 UTC. Time now 2016-Sep-27 15:31 UTC.
Position N 42°56' E 006°07'.

Length 171 m; draft 6.5 m.

Type: Passenger vessel. MMSI: 247228600.

Date/timePositionNaut miles runAvg speedWind from/ knotsBaromVisibWave heightAir tempDewpointWater temp
2016-Sep-26 20:08N 42°56' E 006°07'1114.3
2016-Sep-26 19:22N 43°05' E 005°58'3 0.7
2016-Sep-26 15:31N 43°07' E 005°56'0 0.0
2016-Sep-26 13:31N 43°07' E 005°56'0 0.0
2016-Sep-26 11:31N 43°07' E 005°56'0 0.0
2016-Sep-26 08:31N 43°07' E 005°56'63 7.7
2016-Sep-26 00:25N 42°30' E 007°05'58 3.4
2016-Sep-25 07:32N 43°03' E 005°59'2 0.0
2016-Sep-23 06:24N 43°04' E 005°58'3 0.1
2016-Sep-21 05:33N 43°07' E 005°56'0 0.0
2016-Sep-20 08:33N 43°07' E 005°56'0 0.0
2016-Sep-20 07:33N 43°07' E 005°56'0 0.0
2016-Sep-20 06:33N 43°07' E 005°56'4611.6
2016-Sep-20 02:32N 42°57' E 006°58'5819.6
2016-Sep-19 23:33N 43°01' E 008°18'45 6.4
2016-Sep-19 16:28N 43°06' E 009°19'3820.0
2016-Sep-19 14:34N 43°19' E 008°30'2019.9
2016-Sep-19 13:34N 43°27' E 008°05'2019.7
2016-Sep-19 12:34N 43°34' E 007°39'1817.7
2016-Sep-19 11:34N 43°41' E 007°17'2512.4
2016-Sep-19 09:33N 43°20' E 006°59'4715.7
2016-Sep-19 06:32N 43°04' E 005°58'4610.7
2016-Sep-19 02:17N 42°59' E 007°00'83 7.6
2016-Sep-18 15:20N 43°13' E 008°53'7515.7
2016-Sep-18 10:33N 43°40' E 007°16'41 4.3
2016-Sep-18 01:09N 42°59' E 007°09'8517.6
2016-Sep-17 20:19N 43°04' E 009°05'1716.8
2016-Sep-17 19:16N 43°02' E 009°29'36 6.4
2016-Sep-17 13:33N 43°24' E 010°09'1110.3
2016-Sep-17 12:28N 43°33' E 010°18'6 3.0
2016-Sep-17 10:34N 43°29' E 010°12'2019.8
2016-Sep-17 09:34N 43°15' E 009°54'22 4.3
2016-Sep-17 04:21N 42°59' E 009°32'  

Dump ship's entire track history